SAA172 FYWH-FACT
Flight info
| Callsign | SAA172 |
|---|---|
| Flight time | 1h 35m |
| Altitude | 34000 |
| Route | UVORI1B UVORI UN185 OKLOK DCT ERDAS ERDAS1B |
| Aircraft | B77W/H-SDE1E2E3FGHIJ2J3J4J5M1RWXY/LB1D1 |
Departure
| Time | 2026-04-26 18:21 |
|---|---|
| Airport | Hosea Kutako International Airport (FYWH) |
Arrival
| Time | 2026-04-26 19:56 |
|---|---|
| Airport | Cape Town International Airport (FACT) |
| Time | Latitude | Longitude | Altitude | Speed | Heading |
|---|---|---|---|---|---|
| 2026-04-26 17:50 | -22.48579 | 17.46314 | 5616 ft | 0 kts | 317° |
| 2026-04-26 18:11 | -22.48578 | 17.46313 | 5606 ft | 1 kts | 317° |
| 2026-04-26 18:11 | -22.48566 | 17.46304 | 5614 ft | 4 kts | 326° |
| 2026-04-26 18:11 | -22.48543 | 17.46290 | 5614 ft | 4 kts | 333° |
| 2026-04-26 18:12 | -22.48554 | 17.46295 | 5613 ft | 3 kts | 3° |
| 2026-04-26 18:12 | -22.48549 | 17.46290 | 5613 ft | 4 kts | 64° |
| 2026-04-26 18:14 | -22.48531 | 17.46292 | 5612 ft | 3 kts | 339° |
| 2026-04-26 18:15 | -22.48518 | 17.46268 | 5615 ft | 5 kts | 291° |
| 2026-04-26 18:15 | -22.48524 | 17.46201 | 5614 ft | 12 kts | 250° |
| 2026-04-26 18:15 | -22.48559 | 17.46118 | 5617 ft | 12 kts | 244° |
| 2026-04-26 18:15 | -22.48596 | 17.46037 | 5615 ft | 12 kts | 243° |
| 2026-04-26 18:16 | -22.48634 | 17.45955 | 5619 ft | 12 kts | 243° |
| 2026-04-26 18:16 | -22.48707 | 17.45793 | 5622 ft | 12 kts | 244° |
| 2026-04-26 18:16 | -22.48745 | 17.45711 | 5624 ft | 12 kts | 244° |
| 2026-04-26 18:17 | -22.48782 | 17.45629 | 5627 ft | 12 kts | 244° |
| 2026-04-26 18:17 | -22.48772 | 17.45547 | 5627 ft | 12 kts | 320° |
| 2026-04-26 18:17 | -22.48742 | 17.45472 | 5626 ft | 12 kts | 255° |
| 2026-04-26 18:17 | -22.48777 | 17.45387 | 5627 ft | 12 kts | 244° |
| 2026-04-26 18:18 | -22.48815 | 17.45304 | 5629 ft | 12 kts | 244° |
| 2026-04-26 18:18 | -22.48854 | 17.45223 | 5631 ft | 12 kts | 242° |
| 2026-04-26 18:18 | -22.48893 | 17.45141 | 5635 ft | 12 kts | 243° |
| 2026-04-26 18:18 | -22.48963 | 17.45097 | 5637 ft | 12 kts | 187° |
| 2026-04-26 18:19 | -22.49036 | 17.45058 | 5639 ft | 12 kts | 240° |
| 2026-04-26 18:19 | -22.49004 | 17.44985 | 5641 ft | 12 kts | 334° |
| 2026-04-26 18:19 | -22.48948 | 17.44993 | 5641 ft | 7 kts | 57° |
| 2026-04-26 18:19 | -22.48933 | 17.45054 | 5639 ft | 9 kts | 65° |
| 2026-04-26 18:20 | -22.48921 | 17.45079 | 5638 ft | 0 kts | 63° |
| 2026-04-26 18:20 | -22.48902 | 17.45120 | 5636 ft | 21 kts | 63° |
| 2026-04-26 18:20 | -22.48692 | 17.45568 | 5627 ft | 118 kts | 63° |
| 2026-04-26 18:20 | -22.48380 | 17.46245 | 5606 ft | 184 kts | 63° |
| 2026-04-26 18:21 | -22.47432 | 17.48345 | 5924 ft | 269 kts | 67° |
| 2026-04-26 18:21 | -22.46938 | 17.50337 | 7373 ft | 274 kts | 81° |
| 2026-04-26 18:21 | -22.46827 | 17.52384 | 9195 ft | 272 kts | 88° |
| 2026-04-26 18:21 | -22.46770 | 17.54446 | 10702 ft | 279 kts | 88° |
| 2026-04-26 18:22 | -22.46902 | 17.56618 | 11775 ft | 301 kts | 101° |
| 2026-04-26 18:22 | -22.47503 | 17.58852 | 12891 ft | 320 kts | 111° |
| 2026-04-26 18:22 | -22.48250 | 17.61155 | 14060 ft | 328 kts | 103° |
| 2026-04-26 18:22 | -22.48288 | 17.63636 | 15070 ft | 342 kts | 75° |
| 2026-04-26 18:23 | -22.47177 | 17.65996 | 15718 ft | 366 kts | 45° |
| 2026-04-26 18:23 | -22.45118 | 17.67489 | 16946 ft | 358 kts | 15° |
| 2026-04-26 18:23 | -22.42692 | 17.67744 | 18422 ft | 351 kts | 348° |
| 2026-04-26 18:23 | -22.40445 | 17.66774 | 19454 ft | 350 kts | 320° |
| 2026-04-26 18:24 | -22.38891 | 17.64809 | 20544 ft | 345 kts | 293° |
| 2026-04-26 18:24 | -22.38325 | 17.62329 | 21699 ft | 341 kts | 268° |
| 2026-04-26 18:24 | -22.38786 | 17.59817 | 22665 ft | 347 kts | 246° |
| 2026-04-26 18:24 | -22.39981 | 17.57510 | 23543 ft | 355 kts | 238° |
| 2026-04-26 18:25 | -22.41302 | 17.55295 | 24746 ft | 346 kts | 238° |
| 2026-04-26 18:25 | -22.42892 | 17.53226 | 23832 ft | 372 kts | 223° |
| 2026-04-26 18:25 | -22.44862 | 17.51374 | 23096 ft | 374 kts | 227° |
| 2026-04-26 18:25 | -22.46526 | 17.49286 | 23105 ft | 356 kts | 236° |
| 2026-04-26 18:26 | -22.47819 | 17.47169 | 23643 ft | 327 kts | 238° |
| 2026-04-26 18:26 | -22.48995 | 17.45095 | 24295 ft | 327 kts | 245° |
| 2026-04-26 18:26 | -22.50152 | 17.42907 | 24206 ft | 347 kts | 230° |
| 2026-04-26 18:26 | -22.52164 | 17.41321 | 24367 ft | 376 kts | 206° |
| 2026-04-26 18:27 | -22.54821 | 17.40746 | 24496 ft | 408 kts | 183° |
| 2026-04-26 18:27 | -22.57718 | 17.41310 | 24625 ft | 438 kts | 166° |
| 2026-04-26 18:27 | -22.60579 | 17.42664 | 24806 ft | 456 kts | 157° |
| 2026-04-26 18:27 | -22.63488 | 17.44102 | 24997 ft | 463 kts | 165° |
| 2026-04-26 18:28 | -22.66609 | 17.45029 | 25399 ft | 464 kts | 172° |
| 2026-04-26 18:28 | -22.69735 | 17.45741 | 25914 ft | 468 kts | 173° |
| 2026-04-26 18:28 | -22.72934 | 17.46483 | 26434 ft | 472 kts | 172° |
| 2026-04-26 18:28 | -22.76166 | 17.47261 | 26901 ft | 477 kts | 172° |
| 2026-04-26 18:29 | -22.79438 | 17.48074 | 27333 ft | 484 kts | 172° |
| 2026-04-26 18:29 | -22.82735 | 17.48912 | 27750 ft | 490 kts | 172° |
| 2026-04-26 18:29 | -22.86068 | 17.49770 | 28209 ft | 494 kts | 171° |
| 2026-04-26 18:29 | -22.89431 | 17.50654 | 28694 ft | 498 kts | 171° |
| 2026-04-26 18:30 | -22.92810 | 17.51543 | 29154 ft | 502 kts | 172° |
| 2026-04-26 18:30 | -22.96183 | 17.52420 | 29545 ft | 507 kts | 172° |
| 2026-04-26 18:30 | -22.99634 | 17.53308 | 29933 ft | 511 kts | 172° |
| 2026-04-26 18:30 | -23.03112 | 17.54198 | 30277 ft | 516 kts | 172° |
| 2026-04-26 18:31 | -23.06628 | 17.55096 | 30466 ft | 522 kts | 172° |
| 2026-04-26 18:31 | -23.10206 | 17.56008 | 30613 ft | 529 kts | 172° |
| 2026-04-26 18:31 | -23.13769 | 17.56919 | 30788 ft | 533 kts | 172° |
| 2026-04-26 18:31 | -23.17382 | 17.57847 | 31047 ft | 535 kts | 172° |
| 2026-04-26 18:32 | -23.21019 | 17.58781 | 31394 ft | 534 kts | 172° |
| 2026-04-26 18:32 | -23.24656 | 17.59696 | 31761 ft | 533 kts | 173° |
| 2026-04-26 18:32 | -23.28251 | 17.60379 | 32132 ft | 529 kts | 176° |
| 2026-04-26 18:32 | -23.31886 | 17.60955 | 32507 ft | 527 kts | 177° |
| 2026-04-26 18:33 | -23.35516 | 17.61508 | 32880 ft | 527 kts | 177° |
| 2026-04-26 18:33 | -23.39161 | 17.62071 | 33256 ft | 527 kts | 178° |
| 2026-04-26 18:33 | -23.42786 | 17.62650 | 33615 ft | 527 kts | 177° |
| 2026-04-26 18:33 | -23.46422 | 17.63243 | 33991 ft | 527 kts | 177° |
| 2026-04-26 18:34 | -23.50048 | 17.63837 | 34318 ft | 526 kts | 177° |
| 2026-04-26 18:34 | -23.53666 | 17.64432 | 34642 ft | 525 kts | 177° |
| 2026-04-26 18:34 | -23.57277 | 17.65028 | 34974 ft | 525 kts | 177° |
| 2026-04-26 18:34 | -23.60865 | 17.65620 | 35303 ft | 524 kts | 177° |
| 2026-04-26 18:35 | -23.64419 | 17.66207 | 35639 ft | 522 kts | 177° |
| 2026-04-26 18:35 | -23.68010 | 17.66800 | 35983 ft | 522 kts | 178° |
| 2026-04-26 18:35 | -23.71610 | 17.67393 | 36238 ft | 523 kts | 178° |
| 2026-04-26 18:35 | -23.75216 | 17.67988 | 36508 ft | 523 kts | 178° |
| 2026-04-26 18:36 | -23.78815 | 17.68582 | 36824 ft | 522 kts | 178° |
| 2026-04-26 18:36 | -23.82412 | 17.69169 | 37014 ft | 524 kts | 178° |
| 2026-04-26 18:36 | -23.89563 | 17.70330 | 37054 ft | 521 kts | 178° |
| 2026-04-26 18:37 | -23.96731 | 17.71496 | 37078 ft | 520 kts | 178° |
| 2026-04-26 18:37 | -24.03899 | 17.72663 | 37068 ft | 521 kts | 178° |
| 2026-04-26 18:38 | -24.11079 | 17.73834 | 37070 ft | 522 kts | 178° |
| 2026-04-26 18:38 | -24.18222 | 17.75002 | 37064 ft | 522 kts | 178° |
| 2026-04-26 18:39 | -24.25422 | 17.76181 | 37065 ft | 523 kts | 178° |
| 2026-04-26 18:39 | -24.32623 | 17.77361 | 37057 ft | 523 kts | 178° |
| 2026-04-26 18:40 | -24.39833 | 17.78544 | 37063 ft | 524 kts | 178° |
| 2026-04-26 18:40 | -24.47049 | 17.79730 | 37063 ft | 524 kts | 178° |
| 2026-04-26 18:41 | -24.54282 | 17.80912 | 37060 ft | 523 kts | 178° |
| 2026-04-26 18:41 | -24.61444 | 17.82070 | 37067 ft | 524 kts | 179° |
| 2026-04-26 18:42 | -24.68666 | 17.83238 | 37067 ft | 524 kts | 178° |
| 2026-04-26 18:42 | -24.75887 | 17.84411 | 37068 ft | 524 kts | 178° |
| 2026-04-26 18:43 | -24.83080 | 17.85581 | 37069 ft | 524 kts | 178° |
| 2026-04-26 18:43 | -24.90302 | 17.86758 | 37072 ft | 525 kts | 179° |
| 2026-04-26 18:44 | -24.97560 | 17.87942 | 37070 ft | 526 kts | 179° |
| 2026-04-26 18:44 | -25.04812 | 17.89126 | 37068 ft | 526 kts | 179° |
| 2026-04-26 18:45 | -25.12022 | 17.90303 | 37071 ft | 526 kts | 179° |
| 2026-04-26 18:45 | -25.19272 | 17.91488 | 37080 ft | 527 kts | 179° |
| 2026-04-26 18:46 | -25.26532 | 17.92676 | 37076 ft | 527 kts | 179° |
| 2026-04-26 18:46 | -25.33782 | 17.93865 | 37074 ft | 526 kts | 179° |
| 2026-04-26 18:47 | -25.41024 | 17.95054 | 37074 ft | 526 kts | 179° |
| 2026-04-26 18:47 | -25.48223 | 17.96237 | 37087 ft | 526 kts | 179° |
| 2026-04-26 18:48 | -25.55465 | 17.97428 | 37075 ft | 525 kts | 179° |
| 2026-04-26 18:48 | -25.62710 | 17.98622 | 37081 ft | 525 kts | 179° |
| 2026-04-26 18:49 | -25.69934 | 17.99812 | 37087 ft | 525 kts | 179° |
| 2026-04-26 18:49 | -25.77123 | 18.00999 | 37097 ft | 525 kts | 180° |
| 2026-04-26 18:50 | -25.84356 | 18.02195 | 37089 ft | 525 kts | 180° |
| 2026-04-26 18:50 | -25.91587 | 18.03393 | 37094 ft | 524 kts | 180° |
| 2026-04-26 18:51 | -25.98802 | 18.04589 | 37098 ft | 524 kts | 180° |
| 2026-04-26 18:51 | -26.06023 | 18.05786 | 37106 ft | 524 kts | 180° |
| 2026-04-26 18:52 | -26.13194 | 18.06977 | 37112 ft | 524 kts | 180° |
| 2026-04-26 18:52 | -26.20428 | 18.08181 | 37122 ft | 525 kts | 180° |
| 2026-04-26 18:53 | -26.27667 | 18.09386 | 37120 ft | 525 kts | 180° |
| 2026-04-26 18:53 | -26.34904 | 18.10593 | 37132 ft | 526 kts | 181° |
| 2026-04-26 18:54 | -26.42103 | 18.11795 | 37139 ft | 526 kts | 181° |
| 2026-04-26 18:54 | -26.49359 | 18.13009 | 37140 ft | 525 kts | 181° |
| 2026-04-26 18:55 | -26.56599 | 18.14222 | 37147 ft | 525 kts | 181° |
| 2026-04-26 18:55 | -26.63790 | 18.15427 | 37153 ft | 526 kts | 181° |
| 2026-04-26 18:56 | -26.71031 | 18.16642 | 37136 ft | 525 kts | 181° |
| 2026-04-26 18:56 | -26.77394 | 18.17711 | 37131 ft | 524 kts | 181° |
| 2026-04-26 18:57 | -26.82178 | 18.18517 | 37133 ft | 523 kts | 181° |
| 2026-04-26 18:57 | -26.91810 | 18.20139 | 37148 ft | 524 kts | 182° |
| 2026-04-26 18:58 | -26.98978 | 18.21346 | 37148 ft | 524 kts | 182° |
| 2026-04-26 18:58 | -27.06197 | 18.22564 | 37151 ft | 524 kts | 182° |
| 2026-04-26 18:59 | -27.13415 | 18.23786 | 37151 ft | 525 kts | 182° |
| 2026-04-26 18:59 | -27.20610 | 18.25006 | 37156 ft | 525 kts | 182° |
| 2026-04-26 19:00 | -27.27830 | 18.26230 | 37171 ft | 525 kts | 182° |
| 2026-04-26 19:00 | -27.33840 | 18.27250 | 37183 ft | 525 kts | 182° |
| 2026-04-26 19:01 | -27.41083 | 18.28481 | 37189 ft | 525 kts | 182° |
| 2026-04-26 19:01 | -27.48339 | 18.29716 | 37191 ft | 526 kts | 182° |
| 2026-04-26 19:02 | -27.55557 | 18.30549 | 37203 ft | 518 kts | 187° |
| 2026-04-26 19:02 | -27.61534 | 18.30990 | 37204 ft | 517 kts | 188° |
| 2026-04-26 19:03 | -27.69886 | 18.31620 | 37211 ft | 518 kts | 187° |
| 2026-04-26 19:03 | -27.77091 | 18.32208 | 37219 ft | 519 kts | 187° |
| 2026-04-26 19:04 | -27.84309 | 18.32805 | 37218 ft | 520 kts | 187° |
| 2026-04-26 19:04 | -27.91542 | 18.33396 | 37218 ft | 520 kts | 187° |
| 2026-04-26 19:05 | -28.02349 | 18.34264 | 37226 ft | 521 kts | 188° |
| 2026-04-26 19:06 | -28.09586 | 18.34848 | 37212 ft | 521 kts | 188° |
| 2026-04-26 19:06 | -28.16859 | 18.35848 | 37215 ft | 533 kts | 181° |
| 2026-04-26 19:07 | -28.24157 | 18.37460 | 37216 ft | 535 kts | 180° |
| 2026-04-26 19:07 | -28.31466 | 18.39056 | 37215 ft | 535 kts | 181° |
| 2026-04-26 19:08 | -28.38789 | 18.40593 | 37208 ft | 535 kts | 181° |
| 2026-04-26 19:08 | -28.46068 | 18.42121 | 37205 ft | 534 kts | 181° |
| 2026-04-26 19:09 | -28.53385 | 18.43661 | 37189 ft | 534 kts | 181° |
| 2026-04-26 19:09 | -28.60703 | 18.45206 | 37204 ft | 534 kts | 181° |
| 2026-04-26 19:10 | -28.67969 | 18.46740 | 37194 ft | 534 kts | 181° |
| 2026-04-26 19:10 | -28.75286 | 18.48288 | 37196 ft | 534 kts | 181° |
| 2026-04-26 19:11 | -28.82600 | 18.49835 | 37219 ft | 534 kts | 182° |
| 2026-04-26 19:11 | -28.89881 | 18.51382 | 37199 ft | 535 kts | 182° |
| 2026-04-26 19:12 | -28.97216 | 18.52938 | 37199 ft | 536 kts | 182° |
| 2026-04-26 19:12 | -29.04570 | 18.54501 | 37192 ft | 537 kts | 182° |
| 2026-04-26 19:13 | -29.11922 | 18.56069 | 37204 ft | 538 kts | 182° |
| 2026-04-26 19:13 | -29.19286 | 18.57640 | 37197 ft | 538 kts | 182° |
| 2026-04-26 19:14 | -29.26598 | 18.59202 | 37182 ft | 538 kts | 182° |
| 2026-04-26 19:14 | -29.33964 | 18.60780 | 37185 ft | 538 kts | 182° |
| 2026-04-26 19:15 | -29.41331 | 18.62359 | 37196 ft | 537 kts | 182° |
| 2026-04-26 19:15 | -29.48685 | 18.63938 | 37184 ft | 536 kts | 182° |
| 2026-04-26 19:16 | -29.56021 | 18.65515 | 37193 ft | 535 kts | 183° |
| 2026-04-26 19:16 | -29.63304 | 18.67083 | 37221 ft | 535 kts | 183° |
| 2026-04-26 19:17 | -29.70636 | 18.68661 | 37200 ft | 535 kts | 183° |
| 2026-04-26 19:17 | -29.77951 | 18.70240 | 37191 ft | 534 kts | 183° |
| 2026-04-26 19:18 | -29.85218 | 18.71812 | 37185 ft | 534 kts | 183° |
| 2026-04-26 19:18 | -29.92516 | 18.73392 | 37186 ft | 534 kts | 183° |
| 2026-04-26 19:19 | -29.99730 | 18.74955 | 37192 ft | 534 kts | 183° |
| 2026-04-26 19:19 | -30.07043 | 18.76543 | 37185 ft | 534 kts | 183° |
| 2026-04-26 19:20 | -30.14363 | 18.78135 | 37248 ft | 535 kts | 183° |
| 2026-04-26 19:20 | -30.32794 | 18.82155 | 37222 ft | 535 kts | 184° |
| 2026-04-26 19:21 | -30.91001 | 18.94923 | 37237 ft | 537 kts | 184° |
| 2026-04-26 19:21 | -31.49829 | 19.07992 | 37281 ft | 537 kts | 185° |
| 2026-04-26 19:21 | -31.79119 | 19.14521 | 37178 ft | 535 kts | 185° |
| 2026-04-26 19:22 | -32.07383 | 19.20994 | 35733 ft | 486 kts | 187° |
| 2026-04-26 19:22 | -32.18694 | 19.23482 | 34187 ft | 477 kts | 188° |
| 2026-04-26 19:22 | -32.21974 | 19.24205 | 33721 ft | 479 kts | 187° |
| 2026-04-26 19:22 | -32.25244 | 19.24948 | 33302 ft | 478 kts | 187° |
| 2026-04-26 19:23 | -32.28507 | 19.25699 | 32951 ft | 475 kts | 187° |
| 2026-04-26 19:23 | -32.31694 | 19.26436 | 32797 ft | 467 kts | 187° |
| 2026-04-26 19:23 | -32.34839 | 19.27171 | 33268 ft | 456 kts | 187° |
| 2026-04-26 19:23 | -32.37942 | 19.27886 | 33916 ft | 452 kts | 188° |
| 2026-04-26 19:24 | -32.41039 | 19.28591 | 34494 ft | 450 kts | 188° |
| 2026-04-26 19:24 | -32.44101 | 19.29284 | 35028 ft | 447 kts | 188° |
| 2026-04-26 19:24 | -32.50156 | 19.30669 | 36109 ft | 436 kts | 189° |
| 2026-04-26 19:25 | -32.53113 | 19.31352 | 36669 ft | 430 kts | 189° |
| 2026-04-26 19:25 | -32.55050 | 19.31798 | 37010 ft | 426 kts | 189° |
| 2026-04-26 19:25 | -32.61949 | 19.33343 | 37165 ft | 443 kts | 188° |
| 2026-04-26 19:26 | -32.65021 | 19.34036 | 37166 ft | 454 kts | 188° |
| 2026-04-26 19:26 | -32.68159 | 19.34757 | 37161 ft | 463 kts | 187° |
| 2026-04-26 19:26 | -32.71359 | 19.35509 | 37067 ft | 475 kts | 186° |
| 2026-04-26 19:26 | -32.74616 | 19.36329 | 36489 ft | 478 kts | 187° |
| 2026-04-26 19:27 | -32.77869 | 19.36890 | 35916 ft | 460 kts | 195° |
| 2026-04-26 19:27 | -32.81001 | 19.36924 | 35337 ft | 443 kts | 202° |
| 2026-04-26 19:27 | -32.83992 | 19.36599 | 34803 ft | 429 kts | 207° |
| 2026-04-26 19:27 | -32.86839 | 19.35914 | 34553 ft | 403 kts | 214° |
| 2026-04-26 19:28 | -32.89511 | 19.35050 | 34383 ft | 394 kts | 214° |
| 2026-04-26 19:28 | -32.92131 | 19.34221 | 34133 ft | 387 kts | 215° |
| 2026-04-26 19:28 | -32.94724 | 19.33402 | 33817 ft | 384 kts | 214° |
| 2026-04-26 19:28 | -32.97312 | 19.32579 | 33284 ft | 386 kts | 214° |
| 2026-04-26 19:29 | -32.99910 | 19.31753 | 32801 ft | 385 kts | 214° |
| 2026-04-26 19:29 | -33.02499 | 19.30939 | 32373 ft | 382 kts | 214° |
| 2026-04-26 19:29 | -33.05061 | 19.30138 | 31933 ft | 380 kts | 213° |
| 2026-04-26 19:29 | -33.07612 | 19.29342 | 31613 ft | 375 kts | 214° |
| 2026-04-26 19:30 | -33.10125 | 19.28556 | 31244 ft | 373 kts | 214° |
| 2026-04-26 19:30 | -33.12596 | 19.27782 | 30747 ft | 369 kts | 214° |
| 2026-04-26 19:30 | -33.15082 | 19.27004 | 30004 ft | 368 kts | 213° |
| 2026-04-26 19:30 | -33.16727 | 19.26486 | 29450 ft | 366 kts | 213° |
| 2026-04-26 19:31 | -33.20008 | 19.25452 | 28368 ft | 362 kts | 213° |
| 2026-04-26 19:31 | -33.22434 | 19.24689 | 27646 ft | 358 kts | 213° |
| 2026-04-26 19:31 | -33.24837 | 19.23933 | 26898 ft | 355 kts | 213° |
| 2026-04-26 19:31 | -33.27217 | 19.23184 | 26169 ft | 352 kts | 212° |
| 2026-04-26 19:32 | -33.29538 | 19.22452 | 25450 ft | 349 kts | 212° |
| 2026-04-26 19:32 | -33.31880 | 19.21713 | 24791 ft | 347 kts | 212° |
| 2026-04-26 19:32 | -33.34213 | 19.20972 | 24087 ft | 346 kts | 212° |
| 2026-04-26 19:32 | -33.36537 | 19.20237 | 23361 ft | 344 kts | 211° |
| 2026-04-26 19:33 | -33.38853 | 19.19508 | 22558 ft | 342 kts | 211° |
| 2026-04-26 19:33 | -33.41097 | 19.18695 | 21767 ft | 327 kts | 219° |
| 2026-04-26 19:33 | -33.42947 | 19.17354 | 20998 ft | 297 kts | 236° |
| 2026-04-26 19:33 | -33.44217 | 19.15544 | 20259 ft | 275 kts | 249° |
| 2026-04-26 19:34 | -33.45169 | 19.13584 | 19584 ft | 270 kts | 252° |
| 2026-04-26 19:34 | -33.46050 | 19.11623 | 18859 ft | 270 kts | 252° |
| 2026-04-26 19:34 | -33.46897 | 19.09626 | 18085 ft | 267 kts | 253° |
| 2026-04-26 19:34 | -33.47613 | 19.07604 | 17368 ft | 261 kts | 258° |
| 2026-04-26 19:35 | -33.48289 | 19.05555 | 16550 ft | 266 kts | 254° |
| 2026-04-26 19:35 | -33.49020 | 19.03509 | 15788 ft | 268 kts | 253° |
| 2026-04-26 19:35 | -33.49740 | 19.01444 | 15091 ft | 270 kts | 253° |
| 2026-04-26 19:35 | -33.50435 | 18.99340 | 14356 ft | 272 kts | 253° |
| 2026-04-26 19:36 | -33.51102 | 18.97204 | 13611 ft | 275 kts | 253° |
| 2026-04-26 19:36 | -33.51324 | 18.96472 | 13330 ft | 276 kts | 253° |
| 2026-04-26 19:36 | -33.52393 | 18.92853 | 12046 ft | 278 kts | 253° |
| 2026-04-26 19:36 | -33.53018 | 18.90655 | 11291 ft | 278 kts | 253° |
| 2026-04-26 19:37 | -33.53634 | 18.88499 | 10685 ft | 274 kts | 249° |
| 2026-04-26 19:37 | -33.54678 | 18.86623 | 10195 ft | 270 kts | 230° |
| 2026-04-26 19:37 | -33.56047 | 18.85112 | 9715 ft | 264 kts | 225° |
| 2026-04-26 19:37 | -33.57433 | 18.83713 | 9274 ft | 255 kts | 224° |
| 2026-04-26 19:38 | -33.58774 | 18.82368 | 9124 ft | 256 kts | 224° |
| 2026-04-26 19:38 | -33.60147 | 18.80988 | 9166 ft | 257 kts | 224° |
| 2026-04-26 19:38 | -33.61509 | 18.79628 | 9177 ft | 252 kts | 224° |
| 2026-04-26 19:38 | -33.62822 | 18.78278 | 9126 ft | 246 kts | 226° |
| 2026-04-26 19:39 | -33.64057 | 18.76874 | 9114 ft | 243 kts | 227° |
| 2026-04-26 19:39 | -33.65256 | 18.75470 | 9132 ft | 244 kts | 227° |
| 2026-04-26 19:39 | -33.66441 | 18.74023 | 9119 ft | 240 kts | 234° |
| 2026-04-26 19:39 | -33.67272 | 18.72302 | 9139 ft | 239 kts | 245° |
| 2026-04-26 19:40 | -33.67959 | 18.70466 | 9140 ft | 241 kts | 247° |
| 2026-04-26 19:40 | -33.68658 | 18.68622 | 9136 ft | 244 kts | 245° |
| 2026-04-26 19:40 | -33.69411 | 18.66779 | 9134 ft | 246 kts | 245° |
| 2026-04-26 19:40 | -33.70162 | 18.64956 | 9134 ft | 247 kts | 245° |
| 2026-04-26 19:41 | -33.70923 | 18.63114 | 8972 ft | 245 kts | 244° |
| 2026-04-26 19:41 | -33.71679 | 18.61279 | 8571 ft | 245 kts | 244° |
| 2026-04-26 19:41 | -33.72416 | 18.59424 | 8058 ft | 246 kts | 248° |
| 2026-04-26 19:41 | -33.72614 | 18.58769 | 7878 ft | 248 kts | 251° |
| 2026-04-26 19:42 | -33.73415 | 18.55435 | 7100 ft | 250 kts | 253° |
| 2026-04-26 19:42 | -33.73859 | 18.53475 | 6817 ft | 237 kts | 253° |
| 2026-04-26 19:42 | -33.74282 | 18.51577 | 6355 ft | 238 kts | 253° |
| 2026-04-26 19:42 | -33.74697 | 18.49670 | 5769 ft | 233 kts | 253° |
| 2026-04-26 19:43 | -33.75093 | 18.47803 | 5280 ft | 226 kts | 253° |
| 2026-04-26 19:43 | -33.75473 | 18.45967 | 5115 ft | 229 kts | 253° |
| 2026-04-26 19:43 | -33.75857 | 18.44100 | 5014 ft | 228 kts | 253° |
| 2026-04-26 19:43 | -33.76105 | 18.42883 | 4991 ft | 222 kts | 253° |
| 2026-04-26 19:44 | -33.76449 | 18.41141 | 5014 ft | 203 kts | 253° |
| 2026-04-26 19:44 | -33.76744 | 18.39561 | 4982 ft | 183 kts | 253° |
| 2026-04-26 19:44 | -33.77084 | 18.37665 | 5007 ft | 173 kts | 253° |
| 2026-04-26 19:44 | -33.77245 | 18.36727 | 5000 ft | 172 kts | 254° |
| 2026-04-26 19:45 | -33.77497 | 18.35318 | 5010 ft | 172 kts | 253° |
| 2026-04-26 19:45 | -33.77734 | 18.33911 | 5029 ft | 171 kts | 258° |
| 2026-04-26 19:45 | -33.77483 | 18.32507 | 5012 ft | 182 kts | 296° |
| 2026-04-26 19:45 | -33.76442 | 18.31569 | 5007 ft | 198 kts | 336° |
| 2026-04-26 19:46 | -33.75023 | 18.31373 | 5034 ft | 211 kts | 352° |
| 2026-04-26 19:46 | -33.73545 | 18.31269 | 5020 ft | 211 kts | 349° |
| 2026-04-26 19:46 | -33.72089 | 18.31129 | 5005 ft | 209 kts | 350° |
| 2026-04-26 19:46 | -33.70645 | 18.31329 | 4998 ft | 215 kts | 21° |
| 2026-04-26 19:47 | -33.69512 | 18.32456 | 5022 ft | 217 kts | 54° |
| 2026-04-26 19:47 | -33.68935 | 18.33479 | 5028 ft | 220 kts | 59° |
| 2026-04-26 19:47 | -33.67931 | 18.35598 | 5021 ft | 220 kts | 65° |
| 2026-04-26 19:47 | -33.67246 | 18.37229 | 4996 ft | 217 kts | 65° |
| 2026-04-26 19:48 | -33.66641 | 18.38873 | 4986 ft | 213 kts | 81° |
| 2026-04-26 19:48 | -33.66601 | 18.40612 | 5032 ft | 209 kts | 98° |
| 2026-04-26 19:48 | -33.66677 | 18.42385 | 5034 ft | 214 kts | 98° |
| 2026-04-26 19:48 | -33.66777 | 18.44140 | 5012 ft | 211 kts | 99° |
| 2026-04-26 19:49 | -33.66881 | 18.45890 | 4994 ft | 208 kts | 99° |
| 2026-04-26 19:49 | -33.67033 | 18.47608 | 4985 ft | 204 kts | 112° |
| 2026-04-26 19:49 | -33.67729 | 18.49038 | 4968 ft | 198 kts | 136° |
| 2026-04-26 19:49 | -33.68649 | 18.50249 | 4707 ft | 200 kts | 141° |
| 2026-04-26 19:50 | -33.69629 | 18.51435 | 4315 ft | 197 kts | 147° |
| 2026-04-26 19:50 | -33.70805 | 18.52081 | 3904 ft | 181 kts | 175° |
| 2026-04-26 19:50 | -33.72022 | 18.52399 | 3559 ft | 179 kts | 172° |
| 2026-04-26 19:50 | -33.73223 | 18.52787 | 3184 ft | 179 kts | 171° |
| 2026-04-26 19:51 | -33.74421 | 18.53174 | 2998 ft | 174 kts | 171° |
| 2026-04-26 19:51 | -33.75610 | 18.53551 | 3014 ft | 178 kts | 171° |
| 2026-04-26 19:51 | -33.76793 | 18.53926 | 2999 ft | 177 kts | 171° |
| 2026-04-26 19:51 | -33.77977 | 18.54301 | 2988 ft | 174 kts | 171° |
| 2026-04-26 19:52 | -33.79154 | 18.54673 | 2995 ft | 176 kts | 172° |
| 2026-04-26 19:52 | -33.80341 | 18.55047 | 3015 ft | 177 kts | 171° |
| 2026-04-26 19:52 | -33.81533 | 18.55425 | 2997 ft | 176 kts | 172° |
| 2026-04-26 19:52 | -33.82708 | 18.55798 | 3021 ft | 175 kts | 172° |
| 2026-04-26 19:53 | -33.83890 | 18.56170 | 2799 ft | 175 kts | 171° |
| 2026-04-26 19:53 | -33.85003 | 18.56527 | 2545 ft | 158 kts | 172° |
| 2026-04-26 19:53 | -33.86030 | 18.56853 | 2357 ft | 149 kts | 173° |
| 2026-04-26 19:53 | -33.87046 | 18.57171 | 2129 ft | 153 kts | 173° |
| 2026-04-26 19:54 | -33.88080 | 18.57498 | 1900 ft | 154 kts | 172° |
| 2026-04-26 19:54 | -33.89108 | 18.57824 | 1668 ft | 151 kts | 172° |
| 2026-04-26 19:54 | -33.90117 | 18.58145 | 1459 ft | 150 kts | 171° |
| 2026-04-26 19:54 | -33.91104 | 18.58458 | 1239 ft | 145 kts | 171° |
| 2026-04-26 19:55 | -33.92069 | 18.58764 | 1031 ft | 143 kts | 170° |
| 2026-04-26 19:55 | -33.93080 | 18.59084 | 830 ft | 153 kts | 169° |
| 2026-04-26 19:55 | -33.94088 | 18.59407 | 598 ft | 146 kts | 171° |
| 2026-04-26 19:55 | -33.95056 | 18.59714 | 407 ft | 143 kts | 171° |
| 2026-04-26 19:56 | -33.96025 | 18.60026 | 216 ft | 144 kts | 171° |
| 2026-04-26 19:56 | -33.96957 | 18.60310 | 161 ft | 124 kts | 162° |
| 2026-04-26 19:56 | -33.97635 | 18.60535 | 158 ft | 81 kts | 167° |
| 2026-04-26 19:56 | -33.98020 | 18.60649 | 159 ft | 47 kts | 165° |
| 2026-04-26 19:57 | -33.98301 | 18.60741 | 159 ft | 25 kts | 162° |
| 2026-04-26 19:57 | -33.98468 | 18.60792 | 158 ft | 25 kts | 166° |
| 2026-04-26 19:57 | -33.98636 | 18.60845 | 158 ft | 22 kts | 165° |
| 2026-04-26 19:57 | -33.98742 | 18.60854 | 160 ft | 12 kts | 201° |
| 2026-04-26 19:58 | -33.98786 | 18.60777 | 159 ft | 12 kts | 253° |
| 2026-04-26 19:58 | -33.98798 | 18.60680 | 159 ft | 12 kts | 286° |
| 2026-04-26 19:58 | -33.98730 | 18.60627 | 159 ft | 12 kts | 339° |
| 2026-04-26 19:58 | -33.98650 | 18.60592 | 159 ft | 12 kts | 340° |
| 2026-04-26 19:59 | -33.98570 | 18.60558 | 159 ft | 12 kts | 340° |
| 2026-04-26 19:59 | -33.98491 | 18.60524 | 159 ft | 12 kts | 340° |
| 2026-04-26 19:59 | -33.98412 | 18.60490 | 159 ft | 12 kts | 340° |
| 2026-04-26 19:59 | -33.98331 | 18.60455 | 159 ft | 12 kts | 340° |
| 2026-04-26 20:00 | -33.98251 | 18.60420 | 159 ft | 12 kts | 341° |
| 2026-04-26 20:00 | -33.98171 | 18.60386 | 159 ft | 12 kts | 341° |
| 2026-04-26 20:00 | -33.98092 | 18.60353 | 159 ft | 12 kts | 340° |
| 2026-04-26 20:00 | -33.98012 | 18.60318 | 159 ft | 12 kts | 340° |
| 2026-04-26 20:01 | -33.97931 | 18.60284 | 159 ft | 12 kts | 340° |
| 2026-04-26 20:01 | -33.97851 | 18.60249 | 159 ft | 12 kts | 340° |
| 2026-04-26 20:01 | -33.97768 | 18.60214 | 159 ft | 13 kts | 340° |
| 2026-04-26 20:01 | -33.97680 | 18.60176 | 159 ft | 14 kts | 340° |
| 2026-04-26 20:02 | -33.97589 | 18.60137 | 159 ft | 14 kts | 340° |
| 2026-04-26 20:02 | -33.97531 | 18.60112 | 159 ft | 14 kts | 340° |
| 2026-04-26 20:02 | -33.97431 | 18.60064 | 159 ft | 15 kts | 340° |
| 2026-04-26 20:02 | -33.97366 | 18.60039 | 159 ft | 15 kts | 344° |
| 2026-04-26 20:03 | -33.97231 | 18.59997 | 159 ft | 15 kts | 346° |
| 2026-04-26 20:03 | -33.97129 | 18.59968 | 159 ft | 15 kts | 352° |
| 2026-04-26 20:03 | -33.97029 | 18.59942 | 159 ft | 15 kts | 345° |
| 2026-04-26 20:03 | -33.96928 | 18.59910 | 159 ft | 15 kts | 345° |
| 2026-04-26 20:04 | -33.96828 | 18.59877 | 159 ft | 15 kts | 345° |
| 2026-04-26 20:04 | -33.96772 | 18.59857 | 159 ft | 6 kts | 329° |
| 2026-04-26 20:04 | -33.96760 | 18.59810 | 159 ft | 6 kts | 256° |
| 2026-04-26 20:04 | -33.96768 | 18.59774 | 159 ft | 3 kts | 255° |
| 2026-04-26 20:05 | -33.96770 | 18.59765 | 159 ft | 0 kts | 255° |
| 2026-04-26 20:05 | -33.96771 | 18.59762 | 159 ft | 1 kts | 255° |
| 2026-04-26 20:05 | -33.96771 | 18.59761 | 159 ft | 0 kts | 255° |